createdAt,value
2022-08-19T00:01:08.546Z,92266.22
2022-08-19T00:03:51.695Z,92262.81
2022-08-19T00:06:36.355Z,92277.13
2022-08-19T00:09:21.926Z,92292.34
2022-08-19T00:12:05.802Z,92305.56
2022-08-19T00:14:50.199Z,92316.94
2022-08-19T00:17:33.284Z,92331.06
2022-08-19T00:20:19.799Z,92347.38
2022-08-19T00:23:05.700Z,92352.69
2022-08-19T00:25:48.867Z,92366.00
2022-08-19T00:28:32.292Z,92367.78
2022-08-19T00:31:20.503Z,92369.94
2022-08-19T00:34:04.126Z,92358.28
2022-08-19T00:36:47.571Z,92361.25
2022-08-19T00:39:31.051Z,92366.03
2022-08-19T00:42:16.587Z,92365.81
2022-08-19T00:44:59.671Z,92357.56
2022-08-19T00:47:44.059Z,92360.75
2022-08-19T00:50:27.474Z,92361.31
2022-08-19T00:53:11.670Z,92359.53
2022-08-19T00:55:58.392Z,92354.31
2022-08-19T00:58:41.914Z,92348.88
2022-08-19T01:01:25.149Z,92322.81
2022-08-19T01:04:09.600Z,92319.97
2022-08-19T01:06:52.784Z,92325.19
2022-08-19T01:09:36.190Z,92326.78
2022-08-19T01:12:20.324Z,92338.00
2022-08-19T01:15:03.543Z,92338.22
2022-08-19T01:17:47.819Z,92352.06
2022-08-19T01:20:33.698Z,92358.88
2022-08-19T01:23:18.224Z,92368.28
2022-08-19T01:26:01.953Z,92361.03
2022-08-19T01:28:47.499Z,92360.81
2022-08-19T01:31:33.088Z,92351.56
2022-08-19T01:34:16.402Z,92344.06
2022-08-19T01:36:59.462Z,92342.84
2022-08-19T01:39:45.194Z,92359.72
2022-08-19T01:42:30.284Z,92367.31
2022-08-19T01:45:13.766Z,92374.13
2022-08-19T01:48:01.673Z,92384.94
2022-08-19T01:50:45.771Z,92375.28
2022-08-19T01:53:30.504Z,92373.25
2022-08-19T01:56:18.382Z,92388.47
2022-08-19T01:59:05.642Z,92379.06
2022-08-19T02:01:48.794Z,92375.63
2022-08-19T02:04:31.928Z,92368.84
2022-08-19T02:07:14.983Z,92371.31
2022-08-19T02:09:58.635Z,92386.38
2022-08-19T02:12:43.383Z,92392.38
2022-08-19T02:15:26.967Z,92390.59
2022-08-19T02:18:10.396Z,92380.72
2022-08-19T02:20:53.407Z,92364.84
2022-08-19T02:23:36.437Z,92371.66
2022-08-19T02:26:20.352Z,92371.47
2022-08-19T02:29:04.985Z,92367.63
2022-08-19T02:31:48.141Z,92372.59
2022-08-19T02:34:32.103Z,92368.41
2022-08-19T02:37:29.296Z,92371.81
2022-08-19T02:40:13.654Z,92370.81
2022-08-19T02:42:57.482Z,92362.41
2022-08-19T02:45:42.083Z,92356.88
2022-08-19T02:48:27.722Z,92361.25
2022-08-19T02:51:10.850Z,92351.78
2022-08-19T02:53:54.792Z,92353.13
2022-08-19T02:56:38.302Z,92339.50
2022-08-19T02:59:23.110Z,92326.06
2022-08-19T03:02:07.640Z,92334.94
2022-08-19T03:04:50.857Z,92343.78
2022-08-19T03:07:34.031Z,92347.38
2022-08-19T03:10:17.291Z,92354.78
2022-08-19T03:13:00.371Z,92370.13
2022-08-19T03:15:49.642Z,92380.66
2022-08-19T03:18:34.038Z,92396.03
2022-08-19T03:21:18.795Z,92396.16
2022-08-19T03:24:05.213Z,92389.53
2022-08-19T03:26:52.214Z,92398.28
2022-08-19T03:29:43.272Z,92409.09
2022-08-19T03:32:33.095Z,92408.09
2022-08-19T03:35:17.934Z,92408.88
2022-08-19T03:38:01.214Z,92419.88
2022-08-19T03:40:44.794Z,92418.66
2022-08-19T03:43:27.947Z,92419.22
2022-08-19T03:46:13.878Z,92420.59
2022-08-19T03:48:59.120Z,92420.59
2022-08-19T03:51:45.109Z,92426.47
2022-08-19T03:54:29.569Z,92428.72
2022-08-19T03:57:12.803Z,92435.75
2022-08-19T03:59:55.861Z,92435.53
2022-08-19T04:02:56.531Z,92431.69
2022-08-19T04:05:41.949Z,92436.25
2022-08-19T04:08:26.381Z,92442.84
2022-08-19T04:11:10.405Z,92441.84
2022-08-19T04:13:55.028Z,92442.19
2022-08-19T04:16:38.759Z,92436.56
2022-08-19T04:19:22.844Z,92425.13
2022-08-19T04:22:07.825Z,92431.72
2022-08-19T04:24:52.267Z,92432.28
2022-08-19T04:27:35.323Z,92440.13
2022-08-19T04:30:18.852Z,92462.78
2022-08-19T04:33:01.879Z,92469.44
2022-08-19T04:35:49.263Z,92483.13
2022-08-19T04:38:32.365Z,92485.34
2022-08-19T04:41:34.413Z,92485.75
2022-08-19T04:44:19.448Z,92500.03
2022-08-19T04:47:11.029Z,92490.63
2022-08-19T04:49:54.523Z,92501.63
2022-08-19T04:52:37.583Z,92495.25
2022-08-19T04:55:20.930Z,92498.84
2022-08-19T04:58:05.440Z,92506.66
2022-08-19T05:00:48.539Z,92508.72
2022-08-19T05:03:34.598Z,92510.72
2022-08-19T05:06:20.282Z,92514.34
2022-08-19T05:09:04.867Z,92522.59
2022-08-19T05:11:50.744Z,92531.22
2022-08-19T05:14:35.170Z,92539.69
2022-08-19T05:17:38.274Z,92538.50
2022-08-19T05:20:38.598Z,92523.09
2022-08-19T05:23:22.935Z,92526.28
2022-08-19T05:26:06.781Z,92529.25
2022-08-19T05:28:53.043Z,92524.06
2022-08-19T05:31:41.705Z,92525.06
2022-08-19T05:34:27.105Z,92530.88
2022-08-19T05:37:10.655Z,92530.63
2022-08-19T05:39:53.697Z,92529.63
2022-08-19T05:42:36.854Z,92533.66
2022-08-19T05:45:20.085Z,92533.41
2022-08-19T05:48:04.999Z,92532.41
2022-08-19T05:50:51.205Z,92518.16
2022-08-19T05:53:34.655Z,92516.56
2022-08-19T05:56:21.393Z,92503.09
2022-08-19T05:59:05.210Z,92489.66
2022-08-19T06:01:51.467Z,92479.81
2022-08-19T06:04:36.356Z,92478.81
2022-08-19T06:07:20.373Z,92480.00
2022-08-19T06:10:03.764Z,92475.72
2022-08-19T06:12:46.790Z,92456.84
2022-08-19T06:15:30.154Z,92446.56
2022-08-19T06:18:13.226Z,92434.66
2022-08-19T06:20:57.634Z,92424.84
2022-08-19T06:23:41.469Z,92426.81
2022-08-19T06:26:25.396Z,92420.34
2022-08-19T06:29:10.005Z,92420.94
2022-08-19T06:32:07.272Z,92418.09
2022-08-19T06:34:50.304Z,92421.28
2022-08-19T06:37:34.698Z,92421.88
2022-08-19T06:40:17.876Z,92426.28
2022-08-19T06:43:03.066Z,92421.94
2022-08-19T06:45:49.359Z,92411.44
2022-08-19T06:48:34.672Z,92401.94
2022-08-19T06:51:21.818Z,92398.97
2022-08-19T06:54:07.498Z,92409.22
2022-08-19T06:57:04.105Z,92427.88
2022-08-19T06:59:47.148Z,92439.59
2022-08-19T07:02:30.552Z,92448.28
2022-08-19T07:05:13.689Z,92444.59
2022-08-19T07:07:59.694Z,92455.56
2022-08-19T07:10:48.987Z,92453.88
2022-08-19T07:13:37.358Z,92450.66
2022-08-19T07:16:29.034Z,92461.22
2022-08-19T07:19:16.153Z,92453.56
2022-08-19T07:22:04.216Z,92466.97
2022-08-19T07:24:51.121Z,92466.53
2022-08-19T07:27:36.117Z,92479.94
2022-08-19T07:30:19.232Z,92483.13
2022-08-19T07:33:03.586Z,92490.94
2022-08-19T07:35:46.734Z,92490.16
2022-08-19T07:38:29.797Z,92495.38
2022-08-19T07:41:14.655Z,92500.59
2022-08-19T07:43:59.846Z,92507.41
2022-08-19T07:46:47.242Z,92511.38
2022-08-19T07:49:32.695Z,92508.94
2022-08-19T07:52:16.250Z,92513.25
2022-08-19T07:55:04.494Z,92518.63
2022-08-19T07:57:47.679Z,92508.53
2022-08-19T08:00:32.103Z,92510.72
2022-08-19T08:03:16.316Z,92509.72
2022-08-19T08:06:17.094Z,92514.50
2022-08-19T08:12:33.159Z,92513.97
2022-08-19T08:15:19.698Z,92516.28
2022-08-19T08:18:04.215Z,92502.00
2022-08-19T08:20:47.265Z,92493.94
2022-08-19T08:23:31.197Z,92504.38
2022-08-19T08:26:15.979Z,92500.03
2022-08-19T08:28:59.495Z,92497.31
2022-08-19T08:31:43.876Z,92493.38
2022-08-19T08:34:28.444Z,92492.25
2022-08-19T08:37:11.521Z,92482.59
2022-08-19T08:39:55.445Z,92481.34
2022-08-19T08:42:46.009Z,92485.25
2022-08-19T08:45:33.021Z,92483.84
2022-08-19T08:48:32.254Z,92472.66
2022-08-19T08:51:21.845Z,92468.28
2022-08-19T08:54:09.868Z,92460.91
2022-08-19T08:56:55.856Z,92456.75
2022-08-19T08:59:42.185Z,92453.78
2022-08-19T09:02:25.524Z,92459.28
2022-08-19T09:05:10.975Z,92445.84
2022-08-19T09:08:06.207Z,92445.28
2022-08-19T09:10:55.165Z,92452.31
2022-08-19T09:13:50.149Z,92456.19
2022-08-19T09:16:33.445Z,92466.91
2022-08-19T09:19:22.312Z,92476.00
2022-08-19T09:22:06.507Z,92483.94
2022-08-19T09:24:53.221Z,92485.09
2022-08-19T09:27:43.125Z,92488.84
2022-08-19T09:30:28.737Z,92491.34
2022-08-19T09:33:14.691Z,92495.41
2022-08-19T09:36:08.402Z,92500.53
2022-08-19T09:38:51.828Z,92500.28
2022-08-19T09:41:36.205Z,92514.41
2022-08-19T09:44:21.348Z,92506.53
2022-08-19T09:47:05.682Z,92507.03
2022-08-19T09:49:49.861Z,92519.75
2022-08-19T09:52:33.005Z,92522.63
2022-08-19T09:55:17.021Z,92529.91
2022-08-19T09:58:05.718Z,92532.75
2022-08-19T10:00:50.925Z,92524.78
2022-08-19T10:03:36.230Z,92536.53
2022-08-19T10:06:20.871Z,92525.50
2022-08-19T10:09:33.952Z,92522.06
2022-08-19T10:12:20.309Z,92522.31
2022-08-19T10:15:07.144Z,92523.31
2022-08-19T10:17:54.942Z,92523.66
2022-08-19T10:20:38.642Z,92524.00
2022-08-19T10:23:23.146Z,92519.31
2022-08-19T10:26:07.824Z,92516.59
2022-08-19T10:28:51.032Z,92506.47
2022-08-19T10:34:48.606Z,92493.03
2022-08-19T10:37:32.600Z,92490.53
2022-08-19T10:40:16.171Z,92498.16
2022-08-19T10:42:59.307Z,92505.53
2022-08-19T10:45:52.688Z,92507.91
2022-08-19T10:48:37.392Z,92514.59
2022-08-19T10:51:48.077Z,92508.59
2022-08-19T10:54:45.903Z,92492.47
2022-08-19T10:57:52.411Z,92487.25
2022-08-19T11:00:35.524Z,92480.47
2022-08-19T11:03:20.402Z,92488.69
2022-08-19T11:06:07.738Z,92486.09
2022-08-19T11:08:50.857Z,92479.41
2022-08-19T11:11:34.190Z,92478.78
2022-08-19T11:14:23.348Z,92468.47
2022-08-19T11:17:09.706Z,92464.81
2022-08-19T11:19:52.737Z,92472.44
2022-08-19T11:22:41.021Z,92467.59
2022-08-19T11:25:25.031Z,92459.22
2022-08-19T11:28:08.311Z,92454.97
2022-08-19T11:30:51.378Z,92453.53
2022-08-19T11:33:34.824Z,92448.53
2022-08-19T11:36:18.330Z,92437.72
2022-08-19T11:39:04.035Z,92424.78
2022-08-19T11:41:47.126Z,92424.53
2022-08-19T11:44:31.475Z,92408.47
2022-08-19T11:47:14.717Z,92413.47
2022-08-19T11:49:58.163Z,92418.94
2022-08-19T11:52:41.243Z,92428.56
2022-08-19T11:55:25.688Z,92422.34
2022-08-19T11:58:18.765Z,92424.00
2022-08-19T12:01:02.575Z,92428.81
2022-08-19T12:03:46.979Z,92427.94
2022-08-19T12:06:32.750Z,92423.09
2022-08-19T12:09:16.550Z,92424.28
2022-08-19T12:12:01.784Z,92434.09
2022-08-19T12:14:45.471Z,92434.69
2022-08-19T12:17:29.721Z,92421.31
2022-08-19T12:20:16.602Z,92422.94
2022-08-19T12:22:59.879Z,92435.88
2022-08-19T12:25:50.997Z,92442.22
2022-08-19T12:28:35.440Z,92444.28
2022-08-19T12:31:18.279Z,92451.06
2022-08-19T12:34:03.553Z,92444.69
2022-08-19T12:36:46.635Z,92443.53
2022-08-19T12:39:29.724Z,92446.59
2022-08-19T12:42:14.974Z,92450.03
2022-08-19T12:44:59.594Z,92448.94
2022-08-19T12:47:42.645Z,92428.72
2022-08-19T12:50:29.471Z,92426.16
2022-08-19T12:53:12.953Z,92432.31
2022-08-19T12:55:58.053Z,92432.22
2022-08-19T12:58:48.996Z,92423.38
2022-08-19T13:01:37.507Z,92421.22
2022-08-19T13:04:20.735Z,92418.63
2022-08-19T13:07:04.160Z,92428.25
2022-08-19T13:09:47.237Z,92423.75
2022-08-19T13:12:30.325Z,92423.69
2022-08-19T13:15:15.265Z,92434.47
2022-08-19T13:18:00.229Z,92438.28
2022-08-19T13:20:52.453Z,92441.00
2022-08-19T13:23:37.449Z,92446.94
2022-08-19T13:26:20.330Z,92446.09
2022-08-19T13:29:20.587Z,92446.78
2022-08-19T13:32:21.478Z,92444.06
2022-08-19T13:35:07.636Z,92444.47
2022-08-19T13:37:50.715Z,92450.94
2022-08-19T13:40:35.399Z,92447.56
2022-08-19T13:43:24.047Z,92437.84
2022-08-19T13:46:14.219Z,92433.91
2022-08-19T13:48:57.412Z,92419.53
2022-08-19T13:51:41.893Z,92413.31
2022-08-19T13:54:25.418Z,92410.06
2022-08-19T13:57:08.556Z,92404.31
2022-08-19T13:59:51.550Z,92409.72
2022-08-19T14:02:34.997Z,92412.88
2022-08-19T14:05:19.762Z,92414.41
2022-08-19T14:08:04.808Z,92419.59
2022-08-19T14:10:47.972Z,92428.56
2022-08-19T14:13:32.089Z,92418.50
2022-08-19T14:16:16.067Z,92413.78
2022-08-19T14:18:59.128Z,92413.50
2022-08-19T14:21:42.790Z,92407.19
2022-08-19T14:24:27.265Z,92407.13
2022-08-19T14:27:10.120Z,92401.00
2022-08-19T14:29:53.593Z,92408.09
2022-08-19T14:32:36.990Z,92406.38
2022-08-19T14:35:20.261Z,92396.75
2022-08-19T14:38:03.812Z,92408.22
2022-08-19T14:40:49.866Z,92403.47
2022-08-19T14:43:32.913Z,92405.09
2022-08-19T14:46:17.096Z,92396.75
2022-08-19T14:49:00.422Z,92396.53
2022-08-19T14:51:43.540Z,92400.22
2022-08-19T14:54:26.611Z,92399.03
2022-08-19T14:57:16.073Z,92391.06
2022-08-19T14:59:59.238Z,92391.59
2022-08-19T15:02:42.524Z,92389.81
2022-08-19T15:05:25.579Z,92390.50
2022-08-19T15:08:08.867Z,92388.53
2022-08-19T15:10:51.978Z,92382.81
2022-08-19T15:13:36.865Z,92383.97
2022-08-19T15:16:20.137Z,92388.53
2022-08-19T15:19:03.339Z,92395.75
2022-08-19T15:21:46.387Z,92387.84
2022-08-19T15:24:29.458Z,92383.19
2022-08-19T15:27:12.679Z,92388.03
2022-08-19T15:30:01.000Z,92393.38
2022-08-19T15:32:48.843Z,92392.63
2022-08-19T15:35:32.701Z,92380.50
2022-08-19T15:38:19.996Z,92376.03
2022-08-19T15:41:18.391Z,92370.47
2022-08-19T15:44:03.775Z,92378.16
2022-08-19T15:46:49.239Z,92371.81
2022-08-19T15:49:32.501Z,92372.34
2022-08-19T15:52:15.555Z,92370.50
2022-08-19T15:54:58.731Z,92370.19
2022-08-19T15:58:07.432Z,92376.25
2022-08-19T16:01:24.261Z,92377.06
2022-08-19T16:04:26.077Z,92383.41
2022-08-19T16:07:10.337Z,92390.50
2022-08-19T16:09:53.442Z,92390.22
2022-08-19T16:12:36.481Z,92387.03
2022-08-19T16:15:21.009Z,92379.66
2022-08-19T16:18:05.129Z,92394.38
2022-08-19T16:20:49.555Z,92400.38
2022-08-19T16:23:32.869Z,92392.97
2022-08-19T16:26:18.214Z,92395.84
2022-08-19T16:29:02.123Z,92392.94
2022-08-19T16:31:46.868Z,92392.41
2022-08-19T16:34:30.048Z,92383.16
2022-08-19T16:37:14.975Z,92386.06
2022-08-19T16:39:58.036Z,92389.72
2022-08-19T16:42:41.240Z,92394.72
2022-08-19T16:45:24.491Z,92392.34
2022-08-19T16:48:07.649Z,92382.88
2022-08-19T16:50:55.165Z,92392.34
2022-08-19T16:53:41.306Z,92395.00
2022-08-19T16:56:25.614Z,92398.63
2022-08-19T16:59:08.811Z,92402.28
2022-08-19T17:01:52.403Z,92416.88
2022-08-19T17:04:35.635Z,92420.47
2022-08-19T17:07:19.634Z,92421.13
2022-08-19T17:10:05.911Z,92419.19
2022-08-19T17:12:48.941Z,92426.22
2022-08-19T17:15:32.394Z,92425.38
2022-08-19T17:18:16.113Z,92431.66
2022-08-19T17:21:01.087Z,92435.22
2022-08-19T17:23:44.325Z,92424.38
2022-08-19T17:26:30.567Z,92421.94
2022-08-19T17:29:14.188Z,92422.16
2022-08-19T17:31:57.266Z,92430.97
2022-08-19T17:34:40.275Z,92440.81
2022-08-19T17:37:23.620Z,92445.97
2022-08-19T17:40:09.019Z,92443.69
2022-08-19T17:42:54.458Z,92456.44
2022-08-19T17:45:38.777Z,92456.34
2022-08-19T17:48:22.212Z,92454.22
2022-08-19T17:51:15.163Z,92453.84
2022-08-19T17:53:58.195Z,92458.16
2022-08-19T17:56:41.800Z,92468.50
2022-08-19T17:59:27.899Z,92475.13
2022-08-19T18:02:13.263Z,92472.03
2022-08-19T18:04:56.359Z,92471.38
2022-08-19T18:07:39.406Z,92474.47
2022-08-19T18:10:35.035Z,92489.66
2022-08-19T18:13:22.855Z,92481.47
2022-08-19T18:16:08.955Z,92482.50
2022-08-19T18:18:52.701Z,92485.84
2022-08-19T18:21:36.168Z,92494.41
2022-08-19T18:24:19.882Z,92490.69
2022-08-19T18:27:02.913Z,92500.81
2022-08-19T18:29:46.197Z,92503.94
2022-08-19T18:32:33.029Z,92499.16
2022-08-19T18:35:20.359Z,92499.06
2022-08-19T18:38:24.700Z,92498.19
2022-08-19T18:41:26.192Z,92511.44
2022-08-19T18:44:28.429Z,92518.06
2022-08-19T18:47:29.366Z,92520.50
2022-08-19T18:50:13.968Z,92517.19
2022-08-19T18:52:57.150Z,92524.13
2022-08-19T18:55:40.175Z,92527.47
2022-08-19T18:58:26.157Z,92531.00
2022-08-19T19:01:13.071Z,92542.41
2022-08-19T19:03:56.781Z,92537.06
2022-08-19T19:06:42.620Z,92536.72
2022-08-19T19:09:26.201Z,92543.44
2022-08-19T19:12:11.874Z,92531.81
2022-08-19T19:14:54.996Z,92541.63
2022-08-19T19:17:39.889Z,92544.38
2022-08-19T19:20:22.993Z,92540.84
2022-08-19T19:23:21.340Z,92531.75
2022-08-19T19:26:04.584Z,92539.47
2022-08-19T19:28:47.961Z,92542.00
2022-08-19T19:31:33.475Z,92543.78
2022-08-19T19:34:29.079Z,92545.38
2022-08-19T19:37:13.005Z,92541.75
2022-08-19T19:39:57.425Z,92546.66
2022-08-19T19:42:40.534Z,92547.50
2022-08-19T19:45:24.858Z,92553.31
2022-08-19T19:48:08.422Z,92550.78
2022-08-19T19:50:55.900Z,92561.94
2022-08-19T19:53:40.079Z,92552.34
2022-08-19T19:56:24.857Z,92558.25
2022-08-19T19:59:07.713Z,92560.19
2022-08-19T20:01:51.328Z,92559.13
2022-08-19T20:04:37.700Z,92561.84
2022-08-19T20:07:41.868Z,92561.72
2022-08-19T20:10:24.618Z,92567.03
2022-08-19T20:13:09.273Z,92565.44
2022-08-19T20:15:52.339Z,92568.13
2022-08-19T20:18:35.415Z,92565.72
2022-08-19T20:21:18.501Z,92559.72
2022-08-19T20:24:03.532Z,92562.91
2022-08-19T20:26:53.859Z,92561.47
2022-08-19T20:29:41.462Z,92562.38
2022-08-19T20:32:26.827Z,92563.16
2022-08-19T20:35:11.094Z,92561.81
2022-08-19T20:37:58.206Z,92565.44
2022-08-19T20:40:42.197Z,92559.19
2022-08-19T20:43:25.572Z,92570.22
2022-08-19T20:46:10.128Z,92561.56
2022-08-19T20:48:53.254Z,92557.16
2022-08-19T20:51:37.167Z,92554.31
2022-08-19T20:54:20.259Z,92557.50
2022-08-19T20:57:03.904Z,92559.34
2022-08-19T20:59:46.995Z,92563.50
2022-08-19T21:02:31.421Z,92565.78
2022-08-19T21:05:15.112Z,92581.69
2022-08-19T21:07:58.670Z,92595.19
2022-08-19T21:10:42.442Z,92602.69
2022-08-19T21:13:26.217Z,92606.31
2022-08-19T21:16:09.458Z,92609.94
2022-08-19T21:18:53.974Z,92607.75
2022-08-19T21:21:37.092Z,92620.03
2022-08-19T21:24:20.194Z,92632.28
2022-08-19T21:27:03.377Z,92617.28
2022-08-19T21:29:48.583Z,92623.09
2022-08-19T21:32:31.685Z,92627.72
2022-08-19T21:35:16.156Z,92626.13
2022-08-19T21:37:59.391Z,92620.53
2022-08-19T21:40:42.509Z,92624.59
2022-08-19T21:43:26.054Z,92622.63
2022-08-19T21:46:09.343Z,92613.63
2022-08-19T21:48:52.430Z,92628.72
2022-08-19T21:51:36.922Z,92634.16
2022-08-19T21:54:19.916Z,92628.56
2022-08-19T21:57:02.952Z,92641.50
2022-08-19T21:59:53.110Z,92626.69
2022-08-19T22:02:37.659Z,92627.09
2022-08-19T22:05:22.967Z,92633.56
2022-08-19T22:08:07.385Z,92638.44
2022-08-19T22:10:50.654Z,92634.66
2022-08-19T22:13:40.061Z,92626.47
2022-08-19T22:16:23.782Z,92624.34
2022-08-19T22:19:07.103Z,92616.56
2022-08-19T22:21:50.111Z,92609.16
2022-08-19T22:24:34.578Z,92603.78
2022-08-19T22:27:18.055Z,92608.41
2022-08-19T22:30:01.090Z,92599.41
2022-08-19T22:32:48.655Z,92608.91
2022-08-19T22:35:42.112Z,92606.72
2022-08-19T22:38:25.826Z,92606.72
2022-08-19T22:41:11.151Z,92597.88
2022-08-19T22:43:54.438Z,92594.69
2022-08-19T22:46:37.534Z,92598.13
2022-08-19T22:49:20.563Z,92600.97
2022-08-19T22:52:17.540Z,92606.19
2022-08-19T22:55:03.118Z,92599.38
2022-08-19T22:57:47.915Z,92602.75
2022-08-19T23:00:31.503Z,92600.38
2022-08-19T23:03:14.591Z,92600.56
2022-08-19T23:05:58.478Z,92597.97
2022-08-19T23:08:41.766Z,92593.56
2022-08-19T23:11:24.940Z,92580.53
2022-08-19T23:14:09.577Z,92581.91
2022-08-19T23:16:56.964Z,92593.16
2022-08-19T23:19:41.963Z,92594.53
2022-08-19T23:22:25.570Z,92588.50
2022-08-19T23:25:11.601Z,92591.69
2022-08-19T23:28:12.554Z,92602.72
2022-08-19T23:30:57.338Z,92593.47
2022-08-19T23:33:50.965Z,92595.06
2022-08-19T23:36:35.011Z,92591.22
2022-08-19T23:39:18.158Z,92590.66
2022-08-19T23:42:01.595Z,92588.03
2022-08-19T23:44:51.251Z,92583.84
2022-08-19T23:47:37.006Z,92594.06
2022-08-19T23:50:25.564Z,92602.69
2022-08-19T23:53:13.301Z,92600.28
2022-08-19T23:55:56.747Z,92609.13
2022-08-19T23:58:40.538Z,92614.53
